Time;durP1;ratioP1;P1;durP2;ratioP2;P2;SDS_P1;SDS_P2;PMS_P1;PMS_P2;Temp;Humidity;BMP_temperature;BMP_pressure;BME280_temperature;BME280_humidity;BME280_pressure;Samples;Min_cycle;Max_cycle;Signal;HPM_P1;HPM_P2
2023/12/06 00:00:20;;;;;;;42.63;23.40;;;;;;;-1.98;100.00;100930.38;5045585;28;20222;-49
2023/12/06 00:02:45;;;;;;;43.85;25.05;;;;;;;-2.02;100.00;100930.31;5040473;28;20240;-48
2023/12/06 00:05:11;;;;;;;43.03;23.65;;;;;;;-1.97;100.00;100933.88;5042108;28;20270;-51
2023/12/06 00:07:39;;;;;;;42.15;24.38;;;;;;;-1.99;100.00;100933.88;5052932;28;20259;-48
2023/12/06 00:10:05;;;;;;;40.08;23.02;;;;;;;-1.99;100.00;100935.59;5045526;28;20573;-46
2023/12/06 00:12:31;;;;;;;41.90;24.65;;;;;;;-1.99;100.00;100932.97;5049214;28;20226;-48
2023/12/06 00:14:56;;;;;;;42.53;24.00;;;;;;;-1.99;100.00;100920.75;5054020;28;20710;-47
2023/12/06 00:17:22;;;;;;;42.80;22.77;;;;;;;-1.94;100.00;100923.44;5039763;28;20677;-49
2023/12/06 00:19:47;;;;;;;40.15;24.08;;;;;;;-1.92;100.00;100929.59;5053602;28;20254;-46
2023/12/06 00:22:13;;;;;;;45.13;25.55;;;;;;;-1.95;100.00;100934.78;5051074;28;20672;-48
2023/12/06 00:24:38;;;;;;;39.17;24.13;;;;;;;-1.97;100.00;100928.63;5042269;28;20546;-47
2023/12/06 00:27:04;;;;;;;41.08;23.98;;;;;;;-1.96;100.00;100941.78;5026654;28;20259;-48
2023/12/06 00:29:30;;;;;;;43.75;24.67;;;;;;;-2.00;100.00;100931.22;5025993;28;20584;-49
2023/12/06 00:31:55;;;;;;;47.72;25.85;;;;;;;-1.99;100.00;100931.25;5041698;28;20234;-48
2023/12/06 00:34:21;;;;;;;42.20;25.63;;;;;;;-1.94;100.00;100931.31;5040518;28;20653;-47
2023/12/06 00:36:48;;;;;;;43.35;25.88;;;;;;;-2.01;100.00;100927.72;5043684;28;20670;-46
2023/12/06 00:39:14;;;;;;;45.28;24.65;;;;;;;-2.02;100.00;100931.19;5037630;28;20207;-46
2023/12/06 00:41:40;;;;;;;48.22;25.88;;;;;;;-2.03;100.00;100936.41;5043455;28;20717;-47
2023/12/06 00:44:06;;;;;;;43.08;24.73;;;;;;;-2.00;100.00;100918.09;5042239;28;20179;-46
2023/12/06 00:46:31;;;;;;;45.80;24.63;;;;;;;-1.99;100.00;100928.63;5044490;28;20258;-48
2023/12/06 00:48:58;;;;;;;50.13;25.45;;;;;;;-1.96;100.00;100927.78;5044092;28;20211;-48
2023/12/06 00:51:24;;;;;;;47.60;24.88;;;;;;;-2.00;100.00;100939.09;5040012;28;20219;-45
2023/12/06 00:53:50;;;;;;;43.50;25.30;;;;;;;-2.00;100.00;100931.22;5027933;28;20179;-48
2023/12/06 00:56:15;;;;;;;42.30;25.08;;;;;;;-2.00;100.00;100928.59;5041682;28;20207;-46
2023/12/06 00:58:44;;;;;;;41.22;23.77;;;;;;;-1.96;100.00;100927.78;5049682;28;20203;-46
2023/12/06 01:01:11;;;;;;;45.10;25.45;;;;;;;-1.92;100.00;100934.84;5045430;28;20215;-48
2023/12/06 01:03:37;;;;;;;42.28;25.52;;;;;;;-1.99;100.00;100931.25;5046246;28;20167;-47
2023/12/06 01:06:03;;;;;;;41.10;24.02;;;;;;;-2.01;100.00;100929.44;5028438;28;20519;-47
2023/12/06 01:08:29;;;;;;;40.70;24.85;;;;;;;-1.98;100.00;100938.25;5043208;28;20658;-47
2023/12/06 01:10:54;;;;;;;44.35;24.42;;;;;;;-1.96;100.00;100941.78;5045015;28;20209;-47
2023/12/06 01:13:20;;;;;;;44.22;25.42;;;;;;;-1.97;100.00;100926.91;5031825;28;20237;-47
2023/12/06 01:15:45;;;;;;;42.40;25.42;;;;;;;-1.99;100.00;100935.59;5042206;28;20646;-48
2023/12/06 01:18:11;;;;;;;46.15;25.10;;;;;;;-1.97;100.00;100934.78;5042033;28;20658;-47
2023/12/06 01:20:38;;;;;;;51.58;26.90;;;;;;;-1.97;100.00;100937.41;5047918;28;20274;-45
2023/12/06 01:23:04;;;;;;;45.33;25.05;;;;;;;-1.92;100.00;100934.84;5042955;28;20583;-46
2023/12/06 01:25:30;;;;;;;44.70;25.63;;;;;;;-1.95;100.00;100933.03;5048897;28;20186;-46
2023/12/06 01:27:56;;;;;;;44.53;24.05;;;;;;;-1.92;100.00;100935.72;5024345;28;20180;-47
2023/12/06 01:30:21;;;;;;;42.15;24.73;;;;;;;-1.93;100.00;100941.81;5048174;28;20305;-48
2023/12/06 01:32:47;;;;;;;44.08;26.00;;;;;;;-1.95;100.00;100934.78;5044341;28;20306;-45
2023/12/06 01:35:13;;;;;;;44.15;25.00;;;;;;;-1.91;100.00;100945.34;5027663;28;20198;-47
2023/12/06 01:37:38;;;;;;;45.35;25.05;;;;;;;-1.93;100.00;100943.56;5041987;28;20191;-46
2023/12/06 01:40:04;;;;;;;43.67;25.73;;;;;;;-1.90;100.00;100946.25;5048148;28;20276;-47
2023/12/06 01:42:31;;;;;;;41.65;25.15;;;;;;;-1.90;100.00;100944.50;5043271;28;20708;-46
2023/12/06 01:44:57;;;;;;;41.75;23.98;;;;;;;-1.95;100.00;100945.28;5044064;28;20191;-46
2023/12/06 01:47:25;;;;;;;43.10;25.00;;;;;;;-1.88;100.00;100945.41;5048051;28;20270;-45
2023/12/06 01:49:52;;;;;;;40.25;24.23;;;;;;;-1.92;100.00;100945.34;5039912;28;20204;-47
2023/12/06 01:52:17;;;;;;;43.33;24.90;;;;;;;-1.92;100.00;100947.97;5039619;28;20214;-49
2023/12/06 01:54:43;;;;;;;43.25;24.67;;;;;;;-1.84;100.00;100943.69;5041217;28;20606;-48
2023/12/06 01:57:10;;;;;;;39.72;23.60;;;;;;;-1.90;100.00;100943.63;5027536;28;20262;-46
2023/12/06 01:59:38;;;;;;;45.47;23.67;;;;;;;-1.85;100.00;100943.69;5039961;28;20603;-45
2023/12/06 02:02:04;;;;;;;43.50;24.42;;;;;;;-1.81;100.00;100941.13;5042491;28;20172;-47
2023/12/06 02:04:32;;;;;;;42.97;24.27;;;;;;;-1.83;100.00;100957.75;5039323;28;20226;-45
2023/12/06 02:06:57;;;;;;;40.08;23.02;;;;;;;-1.88;100.00;100945.41;5026990;28;20266;-45
2023/12/06 02:09:23;;;;;;;42.10;24.02;;;;;;;-1.86;100.00;100937.53;5046554;28;20190;-47
2023/12/06 02:11:49;;;;;;;44.20;25.13;;;;;;;-1.84;100.00;100943.69;5047823;28;20225;-47
2023/12/06 02:14:15;;;;;;;42.80;23.15;;;;;;;-1.75;100.00;100948.19;5046482;28;20253;-45
2023/12/06 02:16:41;;;;;;;46.42;25.98;;;;;;;-1.79;100.00;100938.50;5032230;28;20171;-48
2023/12/06 02:19:15;;;;;;;45.00;24.25;;;;;;;-1.81;100.00;100932.38;5046680;28;20649;-47
2023/12/06 02:21:41;;;;;;;38.00;23.27;;;;;;;-1.78;100.00;100943.78;5039516;28;20207;-45
2023/12/06 02:24:07;;;;;;;38.67;23.25;;;;;;;-1.80;100.00;100942.88;5022351;28;20187;-46
2023/12/06 02:26:32;;;;;;;42.40;24.38;;;;;;;-1.84;100.00;100940.19;5040106;28;20237;-47
2023/12/06 02:28:57;;;;;;;41.92;24.65;;;;;;;-1.83;100.00;100947.22;5048793;28;20176;-47
2023/12/06 02:31:23;;;;;;;40.78;24.95;;;;;;;-1.78;100.00;100941.16;5046262;28;20309;-49
2023/12/06 02:33:51;;;;;;;42.47;24.45;;;;;;;-1.82;100.00;100944.59;5045172;28;20212;-47
2023/12/06 02:36:19;;;;;;;46.70;25.30;;;;;;;-1.82;100.00;100947.22;5048708;28;20172;-47
2023/12/06 02:38:46;;;;;;;46.13;24.67;;;;;;;-1.79;100.00;100936.78;5044363;28;20191;-47
2023/12/06 02:41:13;;;;;;;42.90;24.52;;;;;;;-1.79;100.00;100938.50;5039467;28;20305;-47
2023/12/06 02:43:39;;;;;;;44.75;24.92;;;;;;;-1.80;100.00;100949.88;5037554;28;20194;-47
2023/12/06 02:46:06;;;;;;;44.35;25.48;;;;;;;-1.81;100.00;100951.63;5041074;28;20266;-45
2023/12/06 02:48:32;;;;;;;47.03;25.33;;;;;;;-1.80;100.00;100952.50;5044992;28;20179;-46
2023/12/06 02:50:58;;;;;;;50.83;27.50;;;;;;;-1.78;100.00;100948.16;5037862;28;20670;-48
2023/12/06 02:53:23;;;;;;;47.92;26.10;;;;;;;-1.76;100.00;100947.31;5039109;28;20248;-49
2023/12/06 02:55:49;;;;;;;50.00;25.40;;;;;;;-1.73;100.00;100946.47;5041746;28;20294;-49
2023/12/06 02:58:14;;;;;;;46.88;28.00;;;;;;;-1.79;100.00;100942.03;5042741;28;20243;-50
2023/12/06 03:00:40;;;;;;;51.38;26.92;;;;;;;-1.79;100.00;100947.28;5026702;28;20241;-47
2023/12/06 03:03:05;;;;;;;49.83;27.25;;;;;;;-1.71;100.00;100947.38;5045799;28;20269;-47
2023/12/06 03:05:31;;;;;;;52.00;28.55;;;;;;;-1.76;100.00;100954.31;5046306;28;20219;-48
2023/12/06 03:07:56;;;;;;;56.97;27.67;;;;;;;-1.80;100.00;100942.88;5046972;28;20187;-48
2023/12/06 03:10:22;;;;;;;56.42;30.05;;;;;;;-1.78;100.00;100943.78;5045319;28;20206;-47
2023/12/06 03:12:47;;;;;;;57.17;30.33;;;;;;;-1.78;100.00;100946.41;5040169;28;20270;-46
2023/12/06 03:15:13;;;;;;;57.38;29.70;;;;;;;-1.66;100.00;100954.47;5041905;28;20270;-49
2023/12/06 03:17:38;;;;;;;54.30;30.33;;;;;;;-1.73;100.00;100933.34;5046457;28;20224;-47
2023/12/06 03:20:06;;;;;;;51.28;28.00;;;;;;;-1.70;100.00;100950.03;5046426;28;20592;-46
2023/12/06 03:22:32;;;;;;;56.33;30.00;;;;;;;-1.76;100.00;100949.94;5029837;28;20211;-48
2023/12/06 03:24:58;;;;;;;57.03;28.70;;;;;;;-1.77;100.00;100942.94;5023658;28;20598;-48
2023/12/06 03:27:23;;;;;;;55.80;27.65;;;;;;;-1.76;100.00;100947.31;5041263;28;20398;-48
2023/12/06 03:29:49;;;;;;;53.50;27.83;;;;;;;-1.78;100.00;100946.41;5043459;28;20270;-46
2023/12/06 03:32:14;;;;;;;53.25;27.45;;;;;;;-1.75;100.00;100945.56;5031118;28;20176;-50
2023/12/06 03:34:40;;;;;;;52.50;29.50;;;;;;;-1.77;100.00;100940.31;5045320;28;20187;-48
2023/12/06 03:37:05;;;;;;;54.58;28.67;;;;;;;-1.81;100.00;100935.88;5047534;28;20191;-47
2023/12/06 03:39:32;;;;;;;52.95;27.67;;;;;;;-1.79;100.00;100936.78;5045640;28;20701;-48
2023/12/06 03:41:57;;;;;;;56.53;29.90;;;;;;;-1.81;100.00;100942.88;5043045;28;20186;-48
2023/12/06 03:44:23;;;;;;;56.08;28.73;;;;;;;-1.81;100.00;100940.25;5043522;28;20175;-47
2023/12/06 03:46:49;;;;;;;55.55;28.17;;;;;;;-1.81;100.00;100941.13;5043696;28;20321;-46
2023/12/06 03:49:14;;;;;;;58.10;29.02;;;;;;;-1.80;100.00;100948.13;5046937;28;20183;-45
2023/12/06 03:51:40;;;;;;;59.75;28.10;;;;;;;-1.68;100.00;100944.81;5026992;28;20626;-45
2023/12/06 03:54:06;;;;;;;56.08;29.15;;;;;;;-1.77;100.00;100947.28;5042402;28;20271;-47
2023/12/06 03:56:31;;;;;;;57.72;29.15;;;;;;;-1.76;100.00;100943.81;5039073;28;20333;-43
2023/12/06 03:58:57;;;;;;;51.17;27.95;;;;;;;-1.77;100.00;100940.31;5042773;28;20203;-46
2023/12/06 04:01:23;;;;;;;52.70;27.92;;;;;;;-1.78;100.00;100949.03;5034512;28;20206;-45
2023/12/06 04:03:49;;;;;;;54.33;27.58;;;;;;;-1.72;100.00;100953.50;5039951;28;20184;-47
2023/12/06 04:06:14;;;;;;;50.92;27.35;;;;;;;-1.71;100.00;100958.75;5044924;28;20233;-46
2023/12/06 04:08:39;;;;;;;52.97;27.20;;;;;;;-1.71;100.00;100966.66;5040468;28;20176;-45
2023/12/06 04:11:05;;;;;;;53.20;28.95;;;;;;;-1.74;100.00;100957.84;5041339;28;20774;-46
2023/12/06 04:13:31;;;;;;;51.85;28.00;;;;;;;-1.73;100.00;100963.16;5028813;28;20203;-46
2023/12/06 04:15:56;;;;;;;55.88;29.25;;;;;;;-1.73;100.00;100950.00;5048871;28;20212;-45
2023/12/06 04:18:22;;;;;;;54.88;29.08;;;;;;;-1.74;100.00;100960.50;5045354;28;20646;-48
2023/12/06 04:20:47;;;;;;;53.40;28.60;;;;;;;-1.77;100.00;100958.72;5041459;28;20267;-45
2023/12/06 04:23:13;;;;;;;55.97;30.58;;;;;;;-1.77;100.00;100961.34;5040923;28;20159;-46
2023/12/06 04:25:39;;;;;;;54.67;28.48;;;;;;;-1.76;100.00;100962.22;5042477;28;20556;-47
2023/12/06 04:28:05;;;;;;;52.45;28.35;;;;;;;-1.74;100.00;100953.47;5040136;28;20634;-47
2023/12/06 04:30:30;;;;;;;53.30;29.60;;;;;;;-1.71;100.00;100958.75;5045269;28;20195;-49
2023/12/06 04:32:55;;;;;;;54.05;27.70;;;;;;;-1.71;100.00;100963.16;5044351;28;20167;-49
2023/12/06 04:35:21;;;;;;;52.50;28.95;;;;;;;-1.75;100.00;100963.97;5043535;28;20273;-45
2023/12/06 04:37:46;;;;;;;51.58;28.63;;;;;;;-1.72;100.00;100956.13;5047626;28;20207;-45
2023/12/06 04:40:12;;;;;;;55.30;27.58;;;;;;;-1.71;100.00;100963.16;5039770;28;20210;-48
2023/12/06 04:42:38;;;;;;;52.50;26.85;;;;;;;-1.71;100.00;100960.50;5042210;28;20621;-46
2023/12/06 04:45:04;;;;;;;51.17;27.67;;;;;;;-1.68;100.00;100963.22;5043847;28;20179;-48
2023/12/06 04:47:29;;;;;;;53.53;29.92;;;;;;;-1.65;100.00;100973.75;5039994;28;20212;-45
2023/12/06 04:49:55;;;;;;;54.67;28.45;;;;;;;-1.70;100.00;100960.56;5045250;28;20231;-47
2023/12/06 04:52:21;;;;;;;54.97;29.35;;;;;;;-1.71;100.00;100964.03;5042095;28;20190;-48
2023/12/06 04:54:46;;;;;;;51.67;27.67;;;;;;;-1.69;100.00;100964.06;5043557;28;20246;-48
2023/12/06 04:57:12;;;;;;;49.17;27.58;;;;;;;-1.66;100.00;100966.75;5043783;28;20179;-44
2023/12/06 04:59:37;;;;;;;55.42;28.25;;;;;;;-1.63;100.00;100964.13;5044058;28;20204;-45
2023/12/06 05:02:03;;;;;;;55.17;29.17;;;;;;;-1.72;100.00;100966.66;5039477;28;20180;-46
2023/12/06 05:04:28;;;;;;;56.50;27.60;;;;;;;-1.66;100.00;100977.25;5043265;28;20179;-47
2023/12/06 05:06:54;;;;;;;52.55;29.98;;;;;;;-1.67;100.00;100975.47;5043846;28;20250;-47
2023/12/06 05:09:19;;;;;;;55.25;28.50;;;;;;;-1.63;100.00;100972.03;5047345;28;20204;-46
2023/12/06 05:11:45;;;;;;;54.10;28.75;;;;;;;-1.67;100.00;100976.34;5042743;28;20258;-45
2023/12/06 05:14:10;;;;;;;52.83;29.20;;;;;;;-1.66;100.00;100980.75;5042454;28;20255;-45
2023/12/06 05:16:36;;;;;;;56.58;31.17;;;;;;;-1.72;100.00;100971.91;5045124;28;20359;-48
2023/12/06 05:19:01;;;;;;;58.00;31.67;;;;;;;-1.75;100.00;100972.75;5044407;28;20714;-46
2023/12/06 05:21:27;;;;;;;54.95;29.67;;;;;;;-1.68;100.00;100974.59;5037489;28;20199;-47
2023/12/06 05:23:52;;;;;;;57.50;30.95;;;;;;;-1.55;100.00;100980.00;5040847;28;20191;-44
2023/12/06 05:26:18;;;;;;;63.90;30.73;;;;;;;-1.72;100.00;100978.03;5040692;28;20188;-44
2023/12/06 05:28:43;;;;;;;52.97;30.75;;;;;;;-1.68;100.00;100974.59;5038778;28;20596;-45
2023/12/06 05:31:09;;;;;;;66.35;33.03;;;;;;;-1.67;100.00;100980.72;5043280;28;20226;-47
2023/12/06 05:33:34;;;;;;;61.17;33.15;;;;;;;-1.63;100.00;100990.41;5039864;28;20642;-47
2023/12/06 05:36:00;;;;;;;63.92;32.63;;;;;;;-1.62;100.00;100992.16;5042464;28;20543;-48
2023/12/06 05:38:25;;;;;;;59.35;30.90;;;;;;;-1.69;100.00;100995.56;5049328;28;20560;-45
2023/12/06 05:40:51;;;;;;;68.18;32.30;;;;;;;-1.70;100.00;100989.44;5045787;28;20276;-46
2023/12/06 05:43:16;;;;;;;62.50;34.97;;;;;;;-1.67;100.00;100989.47;5040214;28;20183;-45
2023/12/06 05:45:42;;;;;;;63.53;34.10;;;;;;;-1.68;100.00;100992.97;5041667;28;20201;-47
2023/12/06 05:48:08;;;;;;;67.60;34.55;;;;;;;-1.70;100.00;100996.44;5047761;28;20638;-45
2023/12/06 05:50:33;;;;;;;67.97;34.35;;;;;;;-1.68;100.00;100998.22;5044747;28;20669;-46
2023/12/06 05:52:59;;;;;;;65.18;34.63;;;;;;;-1.69;100.00;100996.44;5029697;28;20183;-46
2023/12/06 05:55:25;;;;;;;77.40;37.00;;;;;;;-1.72;100.00;101001.66;5035480;28;20198;-45
2023/12/06 05:57:50;;;;;;;73.05;36.85;;;;;;;-1.76;100.00;101002.47;5041936;28;20720;-47
2023/12/06 06:00:17;;;;;;;78.13;38.58;;;;;;;-1.78;100.00;101000.69;5042313;28;20208;-45
2023/12/06 06:02:43;;;;;;;76.30;37.80;;;;;;;-1.72;100.00;101001.66;5024869;28;20329;-46
2023/12/06 06:05:09;;;;;;;81.38;39.13;;;;;;;-1.73;100.00;101005.16;5041609;28;20567;-45
2023/12/06 06:07:35;;;;;;;85.15;39.53;;;;;;;-1.75;100.00;101000.72;5039980;28;20283;-45
2023/12/06 06:10:01;;;;;;;76.97;38.88;;;;;;;-1.66;100.00;101009.66;5038275;28;20286;-45
2023/12/06 06:12:26;;;;;;;78.50;39.30;;;;;;;-1.65;100.00;101002.63;5043169;28;20527;-46
2023/12/06 06:14:52;;;;;;;87.32;40.22;;;;;;;-1.65;100.00;101002.63;5020966;28;20656;-46
2023/12/06 06:17:17;;;;;;;78.22;38.67;;;;;;;-1.67;100.00;101004.34;5043018;28;20245;-45
2023/12/06 06:19:43;;;;;;;89.85;38.38;;;;;;;-1.69;100.00;101000.81;5040076;28;20200;-45
2023/12/06 06:22:08;;;;;;;89.63;39.45;;;;;;;-1.67;100.00;101004.34;5048489;28;20233;-47
2023/12/06 06:24:34;;;;;;;82.53;39.08;;;;;;;-1.60;100.00;101008.84;5042740;28;20529;-45
2023/12/06 06:26:59;;;;;;;90.78;40.50;;;;;;;-1.61;100.00;101004.44;5037976;28;20165;-46
2023/12/06 06:29:25;;;;;;;91.85;41.30;;;;;;;-1.67;100.00;101007.84;5039708;28;20179;-45
2023/12/06 06:31:50;;;;;;;85.38;40.22;;;;;;;-1.68;100.00;101014.00;5039583;28;20570;-45
2023/12/06 06:34:16;;;;;;;87.15;39.65;;;;;;;-1.68;100.00;101010.50;5042074;28;20260;-46
2023/12/06 06:36:41;;;;;;;93.45;41.25;;;;;;;-1.64;100.00;101014.03;5038926;28;20597;-45
2023/12/06 06:39:07;;;;;;;87.28;40.53;;;;;;;-1.62;100.00;101015.81;5037057;28;20399;-44
2023/12/06 06:41:32;;;;;;;87.78;40.67;;;;;;;-1.62;100.00;101014.94;5038700;28;20246;-45
2023/12/06 06:43:58;;;;;;;86.70;39.78;;;;;;;-1.60;100.00;101010.59;5042747;28;20175;-48
2023/12/06 06:46:23;;;;;;;90.10;41.47;;;;;;;-1.62;100.00;101017.56;5040397;28;20184;-48
2023/12/06 06:48:49;;;;;;;85.68;40.90;;;;;;;-1.66;100.00;101020.16;5042835;28;20173;-49
2023/12/06 06:51:14;;;;;;;91.63;42.00;;;;;;;-1.65;100.00;101023.66;5040177;28;20213;-48
2023/12/06 06:53:40;;;;;;;88.53;38.88;;;;;;;-1.63;100.00;101029.81;5040836;28;20215;-48
2023/12/06 06:56:05;;;;;;;87.32;41.38;;;;;;;-1.60;100.00;101018.47;5040919;28;20183;-48
2023/12/06 06:58:31;;;;;;;90.57;40.15;;;;;;;-1.57;100.00;101029.03;5042894;28;20696;-48
2023/12/06 07:00:56;;;;;;;87.68;40.35;;;;;;;-1.57;100.00;101029.91;5036712;28;20313;-49
2023/12/06 07:03:22;;;;;;;88.63;41.17;;;;;;;-1.54;100.00;101037.81;5022339;28;20262;-48
2023/12/06 07:05:48;;;;;;;101.40;44.25;;;;;;;-1.59;100.00;101041.25;5038429;28;20192;-48
2023/12/06 07:08:13;;;;;;;91.50;42.25;;;;;;;-1.62;100.00;101046.44;5041104;28;20621;-48
2023/12/06 07:10:39;;;;;;;94.80;43.38;;;;;;;-1.62;100.00;101042.06;5041271;28;20622;-49
2023/12/06 07:13:05;;;;;;;87.75;41.75;;;;;;;-1.58;100.00;101048.25;5041117;28;20233;-47
2023/12/06 07:15:30;;;;;;;89.28;40.35;;;;;;;-1.63;100.00;101047.31;5023356;28;20191;-46
2023/12/06 07:17:56;;;;;;;89.78;42.40;;;;;;;-1.59;100.00;101052.66;5039647;28;20199;-47
2023/12/06 07:20:22;;;;;;;93.68;43.22;;;;;;;-1.59;100.00;101059.66;5039945;28;20197;-46
2023/12/06 07:22:49;;;;;;;88.88;41.05;;;;;;;-1.61;100.00;101064.88;5023018;28;20188;-47
2023/12/06 07:25:15;;;;;;;87.82;41.92;;;;;;;-1.60;100.00;101058.75;5041069;28;20242;-47
2023/12/06 07:27:44;;;;;;;92.82;40.85;;;;;;;-1.53;100.00;101058.00;5037101;28;20370;-48
2023/12/06 07:30:16;;;;;;;90.30;41.60;;;;;;;-1.56;100.00;101059.69;5038837;28;20199;-47
2023/12/06 07:32:42;;;;;;;83.80;38.75;;;;;;;-1.61;100.00;101070.13;5041452;28;20179;-46
2023/12/06 07:35:08;;;;;;;84.85;40.67;;;;;;;-1.56;100.00;101064.94;5038673;28;20229;-47
2023/12/06 07:37:33;;;;;;;89.45;38.88;;;;;;;-1.58;100.00;101072.78;5038985;28;20184;-47
2023/12/06 07:39:59;;;;;;;89.65;41.78;;;;;;;-1.53;100.00;101065.88;5038205;28;20195;-48
2023/12/06 07:42:24;;;;;;;90.07;40.45;;;;;;;-1.56;100.00;101067.56;5042262;28;20171;-47
2023/12/06 07:44:50;;;;;;;94.30;42.72;;;;;;;-1.54;100.00;101066.72;5032959;28;20213;-46
2023/12/06 07:47:18;;;;;;;102.43;42.28;;;;;;;-1.57;100.00;101060.56;5041343;28;20179;-47
2023/12/06 07:49:43;;;;;;;86.13;41.38;;;;;;;-1.58;100.00;101062.28;5043428;28;20249;-45
2023/12/06 07:52:09;;;;;;;84.28;40.25;;;;;;;-1.55;100.00;101066.69;5045165;28;20180;-46
2023/12/06 07:54:35;;;;;;;92.13;40.90;;;;;;;-1.53;100.00;101070.22;5041037;28;20210;-46
2023/12/06 07:57:00;;;;;;;93.80;40.65;;;;;;;-1.52;100.00;101069.38;5045968;28;20184;-46
2023/12/06 07:59:26;;;;;;;88.05;40.92;;;;;;;-1.46;100.00;101069.47;5027704;28;20320;-46
2023/12/06 08:01:51;;;;;;;86.90;41.33;;;;;;;-1.56;100.00;101072.81;5041601;28;20194;-45
2023/12/06 08:04:18;;;;;;;93.60;40.03;;;;;;;-1.49;100.00;101072.94;5048089;28;20268;-46
2023/12/06 08:06:43;;;;;;;79.80;38.00;;;;;;;-1.42;100.00;101070.38;5039527;28;20657;-45
2023/12/06 08:09:12;;;;;;;92.70;42.28;;;;;;;-1.39;100.00;101071.31;5032123;28;20174;-45
2023/12/06 08:11:41;;;;;;;90.97;42.72;;;;;;;-1.53;100.00;101067.59;5042437;28;20303;-48
2023/12/06 08:14:07;;;;;;;89.38;41.20;;;;;;;-1.48;100.00;101089.59;5044842;28;20306;-46
2023/12/06 08:16:32;;;;;;;83.97;39.08;;;;;;;-1.42;100.00;101087.06;5040883;28;20176;-47
2023/12/06 08:18:58;;;;;;;86.50;41.20;;;;;;;-1.41;100.00;101086.19;5026872;28;20708;-48
2023/12/06 08:21:24;;;;;;;91.25;42.35;;;;;;;-1.42;100.00;101087.06;5043425;28;20192;-47
2023/12/06 08:23:50;;;;;;;79.45;40.70;;;;;;;-1.42;100.00;101089.69;5036818;28;20195;-46
2023/12/06 08:26:16;;;;;;;95.30;43.38;;;;;;;-1.44;100.00;101096.66;5041476;28;20183;-46
2023/12/06 08:28:42;;;;;;;90.15;41.28;;;;;;;-1.41;100.00;101103.72;5028959;28;20646;-46
2023/12/06 08:31:08;;;;;;;88.53;43.00;;;;;;;-1.41;100.00;101091.44;5039726;28;20198;-47
2023/12/06 08:33:35;;;;;;;93.82;42.03;;;;;;;-1.38;100.00;101096.72;5042755;28;20631;-47
2023/12/06 08:36:00;;;;;;;95.80;42.10;;;;;;;-1.27;100.00;101092.53;5043246;28;20180;-47
2023/12/06 08:38:26;;;;;;;92.20;44.30;;;;;;;-1.34;100.00;101101.19;5046059;28;20274;-47
2023/12/06 08:40:51;;;;;;;90.63;44.28;;;;;;;-1.34;100.00;101105.56;5030239;28;20431;-47
2023/12/06 08:43:17;;;;;;;102.45;43.78;;;;;;;-1.36;100.00;101100.28;5036328;28;20176;-46
2023/12/06 08:45:42;;;;;;;93.45;43.35;;;;;;;-1.26;100.00;101101.31;5038530;28;20589;-45
2023/12/06 08:48:08;;;;;;;96.32;43.25;;;;;;;-1.27;100.00;101105.69;5043129;28;20171;-47
2023/12/06 08:50:34;;;;;;;102.53;44.20;;;;;;;-1.23;100.00;101095.19;5046050;28;20276;-46
2023/12/06 08:53:00;;;;;;;95.03;44.42;;;;;;;-1.32;100.00;101094.19;5036073;28;20187;-46
2023/12/06 08:55:25;;;;;;;98.68;44.53;;;;;;;-1.25;100.00;101111.84;5038533;28;20190;-46
2023/12/06 08:57:51;;;;;;;88.88;43.30;;;;;;;-1.21;100.00;101104.00;5037080;28;20203;-47
2023/12/06 09:00:17;;;;;;;93.78;42.70;;;;;;;-1.13;100.00;101099.75;5041595;28;20298;-46
2023/12/06 09:02:43;;;;;;;92.22;43.80;;;;;;;-1.20;100.00;101103.13;5034630;28;20537;-46
2023/12/06 09:05:11;;;;;;;96.13;44.03;;;;;;;-1.12;100.00;101114.63;5034508;28;20194;-45
2023/12/06 09:07:38;;;;;;;90.90;44.45;;;;;;;-1.20;100.00;101108.38;5036076;28;20281;-46
2023/12/06 09:10:04;;;;;;;97.13;43.63;;;;;;;-1.09;100.00;101114.69;5019918;28;20231;-46
2023/12/06 09:12:30;;;;;;;93.90;44.25;;;;;;;-1.09;100.00;101120.84;5043967;28;20184;-46
2023/12/06 09:14:56;;;;;;;89.10;42.05;;;;;;;-1.07;100.00;101115.59;5036946;28;20176;-45
2023/12/06 09:17:21;;;;;;;94.70;41.80;;;;;;;-1.08;100.00;101122.59;5037815;28;20706;-45
2023/12/06 09:19:48;;;;;;;91.32;43.05;;;;;;;-0.95;100.00;101128.03;5040933;28;20581;-47
2023/12/06 09:22:15;;;;;;;89.05;41.20;;;;;;;-0.92;100.00;101131.59;5038595;28;20218;-45
2023/12/06 09:24:43;;;;;;;92.88;43.17;;;;;;;-0.91;100.00;101133.34;5038232;28;20176;-46
2023/12/06 09:27:08;;;;;;;90.53;45.15;;;;;;;-0.96;100.00;101128.88;5039251;28;20262;-46
2023/12/06 09:29:34;;;;;;;91.53;44.70;;;;;;;-0.89;100.00;101129.00;5041265;28;20259;-46
2023/12/06 09:31:59;;;;;;;97.35;45.95;;;;;;;-0.83;100.00;101128.19;5040697;28;20176;-46
2023/12/06 09:34:25;;;;;;;87.90;43.05;;;;;;;-0.87;100.00;101143.03;5029405;28;20237;-46
2023/12/06 09:36:50;;;;;;;92.82;45.40;;;;;;;-0.96;100.00;101142.03;5038179;28;20619;-46
2023/12/06 09:39:20;;;;;;;81.70;41.00;;;;;;;-0.92;100.00;101141.19;5039654;28;20199;-46
2023/12/06 09:41:46;;;;;;;92.70;42.33;;;;;;;-0.94;100.00;101138.56;5038328;28;20227;-47
2023/12/06 09:44:12;;;;;;;90.55;42.35;;;;;;;-0.93;100.00;101142.09;5038757;28;20222;-46
2023/12/06 09:46:37;;;;;;;98.38;44.70;;;;;;;-0.92;100.00;101143.84;5039799;28;20172;-46
2023/12/06 09:49:03;;;;;;;90.85;42.65;;;;;;;-0.95;100.00;101136.78;5024206;28;20184;-47
2023/12/06 09:51:28;;;;;;;83.90;42.15;;;;;;;-0.91;100.00;101143.00;5039550;28;20202;-47
2023/12/06 09:53:54;;;;;;;89.45;43.13;;;;;;;-0.78;100.00;101144.03;5034260;28;20176;-46
2023/12/06 09:56:21;;;;;;;95.00;43.78;;;;;;;-0.79;100.00;101143.13;5040455;28;20180;-46
2023/12/06 09:58:46;;;;;;;92.25;42.75;;;;;;;-0.74;100.00;101132.69;5039102;28;20570;-47
2023/12/06 10:01:12;;;;;;;89.72;42.97;;;;;;;-0.73;100.00;101139.72;5040454;28;20199;-46
2023/12/06 10:03:38;;;;;;;88.35;42.85;;;;;;;-0.80;100.00;101137.88;5028596;28;20176;-45
2023/12/06 10:06:05;;;;;;;87.35;42.97;;;;;;;-0.64;100.00;101150.34;5039926;28;20171;-46
2023/12/06 10:08:34;;;;;;;88.15;41.10;;;;;;;-0.61;100.00;101139.88;5037878;28;20168;-44
2023/12/06 10:11:08;;;;;;;96.03;43.75;;;;;;;-0.71;100.00;101145.88;5040056;28;20622;-43
2023/12/06 10:13:38;;;;;;;87.43;42.80;;;;;;;-0.76;100.00;101137.94;5018228;28;20534;-44
2023/12/06 10:16:20;;;;;;;88.10;41.30;;;;;;;-0.71;100.00;101130.97;5041486;28;20571;-44
2023/12/06 10:18:48;;;;;;;88.85;41.75;;;;;;;-0.64;100.00;101135.44;5039813;28;20191;-43
2023/12/06 10:21:14;;;;;;;86.13;41.92;;;;;;;-0.70;100.00;101138.00;5038416;28;20235;-43
2023/12/06 10:23:41;;;;;;;94.18;46.03;;;;;;;-0.81;100.00;101129.06;5020992;28;20180;-44
2023/12/06 10:26:16;;;;;;;92.25;43.03;;;;;;;-0.72;100.00;101129.22;5039633;28;20203;-43
2023/12/06 10:28:43;;;;;;;95.30;43.45;;;;;;;-0.88;100.00;101132.50;5038545;28;20179;-44
2023/12/06 10:31:09;;;;;;;92.00;42.00;;;;;;;-0.85;100.00;101124.66;5041590;28;20195;-46
2023/12/06 10:33:35;;;;;;;95.63;44.22;;;;;;;-0.67;100.00;101129.28;5020544;28;20661;-46
2023/12/06 10:36:02;;;;;;;98.03;45.38;;;;;;;-0.72;100.00;101133.56;5042621;28;20597;-44
2023/12/06 10:38:28;;;;;;;98.85;45.90;;;;;;;-0.66;100.00;101133.66;5037768;28;20212;-44
2023/12/06 10:40:59;;;;;;;86.35;42.88;;;;;;;-0.54;100.00;101123.28;5037538;28;20187;-43
2023/12/06 10:43:28;;;;;;;94.80;44.17;;;;;;;-0.52;100.00;101126.81;5039022;28;20269;-43
2023/12/06 10:45:54;;;;;;;95.35;44.55;;;;;;;-0.66;100.00;101136.28;5038984;28;20187;-43
2023/12/06 10:48:21;;;;;;;91.28;43.42;;;;;;;-0.54;100.00;101118.03;5022770;28;20171;-44
2023/12/06 10:50:48;;;;;;;86.70;42.30;;;;;;;-0.40;100.00;101131.34;5038992;28;20228;-42
2023/12/06 10:53:16;;;;;;;90.40;43.92;;;;;;;-0.43;100.00;101126.94;5027369;28;20187;-42
2023/12/06 10:55:42;;;;;;;94.38;41.75;;;;;;;-0.46;100.00;101126.91;5037421;28;20482;-44